Main page
METAR-TAF:

METAR-TAF

Airports :

Istres-Le Tubé Air Base

Istres, France

latitude: 43-31N, longitude: 004-56E, elevation: 23 m

Current weather observation

The report was made 25 minutes ago, at 21:00 UTC
Wind 10 kt from the North
Temperature 4°C
Humidity 56%
Pressure 1027 hPa
Visibility 10 km or more
no clouds below 1500 m and no cumulonimbus

METAR: LFMI 212100Z AUTO 36010KT CAVOK 04/M04 Q1027 NOSIG

Time: 22:25 (21:25 UTC)

Forecast

The report was made 1 hour and 25 minutes ago, at 20:00 UTC
Forecast valid from 21 at 21 UTC to 22 at 21 UTC
Wind 12 kt from the North
Visibility 10 km or more
no clouds below 1500 m and no cumulonimbus
Probability 30% :
Temporary
from 22 at 05 UTC to 22 at 16 UTC
Wind 15 kt from the North with gusts up to 25 kt

TAF: LFMI 212000Z 2121/2221 36012KT CAVOK TX08/2214Z TN01/2201Z PROB30 TEMPO 2205/2216 36015G25KT

Weather observations and forecasts of more than 4000 airports (METAR and TAF reports).

The available stations are represented by yellow and red dots on the map.

Hover mouse over dot to see the name of the station.

Then click to see weather observations and forecasts.

To change the map : click on the green buttons with a black cross to zoom in, on the green button with a dash to zoom out, or on the green arrows for adjacent maps.


METAR-TAF: